Time;durP1;ratioP1;P1;durP2;ratioP2;P2;SDS_P1;SDS_P2;PMS_P1;PMS_P2;Temp;Humidity;BMP_temperature;BMP_pressure;BME280_temperature;BME280_humidity;BME280_pressure;Samples;Min_cycle;Max_cycle;Signal;HPM_P1;HPM_P2
2023/06/09 00:00:11;;;;;;;9.67;4.93;;;;;;;-141.97;61.82;47540.22;5031791;28;20174;-77
2023/06/09 00:02:38;;;;;;;7.17;5.20;;;;;;;-141.97;61.97;47501.78;5032023;28;20591;-77
2023/06/09 00:05:04;;;;;;;7.43;5.30;;;;;;;-141.97;62.18;47538.28;5030541;28;20560;-77
2023/06/09 00:07:33;;;;;;;9.70;4.93;;;;;;;-141.97;62.19;47549.84;5031801;28;20170;-78
2023/06/09 00:09:59;;;;;;;6.53;5.17;;;;;;;-141.97;62.23;47586.34;5031588;28;20645;-77
2023/06/09 00:12:24;;;;;;;6.87;5.33;;;;;;;-141.97;62.67;47546.00;5030728;28;20158;-78
2023/06/09 00:14:50;;;;;;;6.07;5.20;;;;;;;-141.97;62.61;47553.69;5031123;28;20245;-80
2023/06/09 00:17:15;;;;;;;10.00;5.67;;;;;;;-141.97;62.81;47505.63;5031214;28;20251;-78
2023/06/09 00:19:41;;;;;;;9.00;5.70;;;;;;;-141.97;62.89;47507.53;5031520;28;20203;-77
2023/06/09 00:22:13;;;;;;;6.73;5.20;;;;;;;-141.97;62.81;47736.28;5030929;28;20162;-78
2023/06/09 00:24:39;;;;;;;6.43;5.30;;;;;;;-141.97;62.99;47582.50;5030264;28;20200;-78
2023/06/09 00:27:06;;;;;;;9.87;5.40;;;;;;;-141.97;63.36;47561.38;5030369;28;20578;-78
2023/06/09 00:29:31;;;;;;;8.57;5.40;;;;;;;-141.97;63.53;47528.69;5031729;28;20158;-79
2023/06/09 00:31:57;;;;;;;7.33;5.63;;;;;;;-141.97;63.49;47503.69;5031696;28;20172;-78
2023/06/09 00:34:22;;;;;;;10.37;6.20;;;;;;;-141.97;63.71;47609.41;5031694;28;20162;-78
2023/06/09 00:36:48;;;;;;;9.47;5.53;;;;;;;-141.97;63.93;47584.44;5031003;28;20198;-79
2023/06/09 00:39:13;;;;;;;7.90;5.37;;;;;;;-141.97;63.97;47561.38;5031232;28;20257;-78
2023/06/09 00:41:39;;;;;;;10.20;5.70;;;;;;;-141.97;63.84;47515.22;5031031;28;20301;-79
2023/06/09 00:44:05;;;;;;;8.87;5.87;;;;;;;-141.97;63.76;47561.38;5031787;28;20572;-77
2023/06/09 00:46:32;;;;;;;9.73;5.80;;;;;;;-141.97;63.71;47734.34;5031192;28;20234;-77
2023/06/09 00:48:58;;;;;;;8.07;5.80;;;;;;;-141.97;63.90;47496.00;5031387;28;20246;-77
2023/06/09 00:51:24;;;;;;;8.13;5.97;;;;;;;-141.97;64.46;47569.06;5029696;28;20631;-79
2023/06/09 00:53:50;;;;;;;12.50;6.23;;;;;;;-141.97;64.92;47522.91;5031146;28;20251;-78
2023/06/09 00:56:16;;;;;;;9.47;5.67;;;;;;;-141.97;65.15;47540.22;5031394;28;20685;-78
2023/06/09 00:58:41;;;;;;;6.93;5.83;;;;;;;-141.97;65.65;47580.59;5030916;28;20185;-78
2023/06/09 01:01:08;;;;;;;10.47;6.47;;;;;;;-141.97;65.27;47572.91;5030796;28;20580;-78
2023/06/09 01:03:33;;;;;;;7.83;6.17;;;;;;;-141.97;65.31;47557.53;5030841;28;20232;-79
2023/06/09 01:06:30;;;;;;;11.50;6.70;;;;;;;-141.97;65.32;47584.44;5030878;28;20245;-78
2023/06/09 01:09:04;;;;;;;9.23;6.37;;;;;;;-141.97;66.08;47553.69;5009494;28;20246;-79
2023/06/09 01:11:36;;;;;;;8.97;6.70;;;;;;;-141.97;67.12;47570.97;5009200;28;20199;-80
2023/06/09 01:14:23;;;;;;;10.13;6.60;;;;;;;-141.97;68.90;47574.81;5010738;28;20183;-78
2023/06/09 01:47:21;;;;;;;9.73;7.00;;;;;;;-141.97;65.48;47528.69;4938508;28;20295;-78
2023/06/09 01:50:01;;;;;;;12.30;7.50;;;;;;;-141.97;63.95;47547.91;5033801;28;20556;-78
2023/06/09 01:52:52;;;;;;;13.70;7.03;;;;;;;-141.97;63.89;47546.00;5033450;28;20185;-77
2023/06/09 01:55:24;;;;;;;9.27;6.63;;;;;;;-141.97;64.09;47538.28;5033888;28;20534;-77
2023/06/09 01:58:12;;;;;;;10.47;6.40;;;;;;;-141.97;63.92;47515.22;5033764;28;20170;-76
2023/06/09 02:00:41;;;;;;;9.20;6.47;;;;;;;-141.97;64.74;47526.75;5033976;28;20185;-79
2023/06/09 02:03:10;;;;;;;9.97;6.80;;;;;;;-141.97;64.20;47557.53;5034749;28;20260;-79
2023/06/09 02:05:36;;;;;;;10.03;6.47;;;;;;;-141.97;63.80;47605.56;5034271;28;20158;-78
2023/06/09 02:08:03;;;;;;;7.53;6.00;;;;;;;-141.97;63.96;47561.38;5034110;28;20595;-79
2023/06/09 02:10:31;;;;;;;11.07;6.87;;;;;;;-141.97;65.80;47572.91;5033772;28;20252;-79
2023/06/09 02:12:56;;;;;;;10.60;7.00;;;;;;;-141.97;66.25;47559.44;5033880;28;20155;-79
2023/06/09 02:15:21;;;;;;;9.23;6.97;;;;;;;-141.97;66.00;47565.22;5033687;28;20197;-79
2023/06/09 02:17:47;;;;;;;10.80;7.43;;;;;;;-141.97;65.39;47515.22;5033668;28;20227;-79
2023/06/09 02:20:13;;;;;;;21.23;11.47;;;;;;;-141.97;65.15;47524.84;5033828;28;20182;-79
2023/06/09 02:22:39;;;;;;;19.83;12.83;;;;;;;-141.97;65.76;47576.75;5033826;28;20170;-79
2023/06/09 02:25:05;;;;;;;20.40;11.10;;;;;;;-141.97;65.81;47619.03;5033545;28;20181;-79
2023/06/09 02:27:30;;;;;;;17.13;10.60;;;;;;;-141.97;65.94;47584.44;5033633;28;20160;-79
2023/06/09 02:29:56;;;;;;;17.93;10.67;;;;;;;-141.97;66.63;47511.38;5033939;28;20169;-78
2023/06/09 02:32:22;;;;;;;17.13;10.73;;;;;;;-141.97;66.75;47586.34;5033858;28;20235;-78
2023/06/09 02:34:47;;;;;;;21.77;10.93;;;;;;;-141.97;67.18;47551.75;5033310;28;20170;-76
2023/06/09 02:37:13;;;;;;;19.53;10.57;;;;;;;-141.97;67.32;47592.13;5032913;28;20190;-79
2023/06/09 02:39:39;;;;;;;17.70;10.00;;;;;;;-141.97;67.33;47582.50;5031898;28;20174;-79
2023/06/09 02:42:05;;;;;;;19.53;10.00;;;;;;;-141.97;67.66;47524.84;5031632;28;20162;-79
2023/06/09 02:44:37;;;;;;;16.40;9.47;;;;;;;-141.97;68.26;47542.16;5032869;28;20162;-79
2023/06/09 02:47:05;;;;;;;14.37;9.20;;;;;;;-141.97;68.12;47584.44;5032495;28;20592;-79
2023/06/09 02:49:31;;;;;;;14.73;9.60;;;;;;;-141.97;67.90;47628.63;5032994;28;20260;-78
2023/06/09 02:51:57;;;;;;;13.60;9.47;;;;;;;-141.97;68.23;47553.69;5032832;28;20631;-78
2023/06/09 02:54:22;;;;;;;15.70;9.53;;;;;;;-141.97;67.95;47574.81;5032957;28;20174;-78
2023/06/09 02:56:48;;;;;;;18.90;10.80;;;;;;;-141.97;68.08;47574.81;5032951;28;20198;-79
2023/06/09 02:59:13;;;;;;;18.90;10.40;;;;;;;-141.97;68.26;47534.44;5033147;28;20165;-78
2023/06/09 03:01:39;;;;;;;15.47;10.23;;;;;;;-141.97;69.08;47588.28;5032999;28;20170;-78
2023/06/09 03:04:08;;;;;;;16.93;10.00;;;;;;;-141.97;69.87;47576.75;5032564;28;20159;-78
2023/06/09 03:06:36;;;;;;;16.57;10.17;;;;;;;-141.97;70.72;47574.81;5032534;28;20213;-79
2023/06/09 03:09:02;;;;;;;14.50;10.00;;;;;;;-141.97;71.40;47511.38;5032640;28;20261;-79
2023/06/09 03:11:28;;;;;;;14.37;9.43;;;;;;;-141.97;71.62;47592.13;5033181;28;20563;-79
2023/06/09 03:13:53;;;;;;;15.70;9.90;;;;;;;-141.97;72.43;47546.00;5032400;28;20208;-78
2023/06/09 03:16:19;;;;;;;16.83;10.13;;;;;;;-141.97;71.92;47595.97;5032208;28;20221;-78
2023/06/09 03:18:46;;;;;;;18.03;10.50;;;;;;;-141.97;71.54;47588.28;5032498;28;20186;-78
2023/06/09 03:21:13;;;;;;;20.00;13.13;;;;;;;-141.97;71.34;47580.59;5032300;28;20560;-78
2023/06/09 03:23:40;;;;;;;22.53;14.23;;;;;;;-141.97;70.76;47569.06;5032550;28;20170;-77
2023/06/09 03:26:06;;;;;;;22.37;13.00;;;;;;;-141.97;70.42;47569.06;5032548;28;20619;-78
2023/06/09 03:28:32;;;;;;;19.37;11.80;;;;;;;-141.97;70.09;47599.81;5032013;28;20166;-77
2023/06/09 03:30:57;;;;;;;15.17;10.70;;;;;;;-141.97;69.86;47592.13;5032481;28;20162;-77
2023/06/09 03:33:24;;;;;;;14.53;9.47;;;;;;;-141.97;70.45;47549.84;5031858;28;20253;-77
2023/06/09 03:35:50;;;;;;;16.50;10.10;;;;;;;-141.97;70.96;47595.97;5031829;28;20323;-77
2023/06/09 03:38:16;;;;;;;17.00;10.07;;;;;;;-141.97;70.49;47559.44;5031981;28;20166;-78
2023/06/09 03:40:41;;;;;;;20.80;11.70;;;;;;;-141.97;70.44;47649.78;5032113;28;20170;-78
2023/06/09 03:43:07;;;;;;;14.43;10.77;;;;;;;-141.97;70.61;47565.22;5031897;28;20204;-78
2023/06/09 03:45:34;;;;;;;20.63;11.37;;;;;;;-141.97;70.76;47572.91;5031327;28;20236;-78
2023/06/09 03:48:00;;;;;;;15.73;11.33;;;;;;;-141.97;70.18;47526.75;5030416;28;20189;-79
2023/06/09 03:50:25;;;;;;;15.23;10.83;;;;;;;-141.97;69.95;47603.66;5032111;28;20154;-78
2023/06/09 03:52:51;;;;;;;18.87;11.50;;;;;;;-141.97;69.83;47576.75;5031582;28;20618;-78
2023/06/09 03:55:22;;;;;;;15.83;11.47;;;;;;;-141.97;69.92;47757.41;5031510;28;20264;-78
2023/06/09 03:57:48;;;;;;;17.50;10.80;;;;;;;-141.97;70.30;47561.38;5046914;28;20185;-79
2023/06/09 04:00:15;;;;;;;14.40;10.37;;;;;;;-141.97;70.78;47570.97;5031601;28;20166;-77
2023/06/09 04:02:41;;;;;;;15.07;10.20;;;;;;;-141.97;71.98;47609.41;5031515;28;20154;-77
2023/06/09 04:05:06;;;;;;;19.37;10.03;;;;;;;-141.97;73.25;47536.38;5031883;28;20225;-78
2023/06/09 04:07:32;;;;;;;18.33;10.50;;;;;;;-141.97;74.64;47553.69;5031295;28;20182;-77
2023/06/09 04:09:57;;;;;;;15.67;10.20;;;;;;;-141.97;74.88;47546.00;5031544;28;20154;-78
2023/06/09 04:12:23;;;;;;;16.03;10.90;;;;;;;-141.97;75.01;47565.22;5015697;28;20619;-78
2023/06/09 04:14:48;;;;;;;15.47;10.60;;;;;;;-141.97;75.67;47686.31;5011675;28;20190;-77
2023/06/09 04:17:14;;;;;;;15.67;10.97;;;;;;;-141.97;75.82;47563.28;5011910;28;20194;-78
2023/06/09 04:19:39;;;;;;;17.80;11.20;;;;;;;-141.97;75.87;47478.72;5011822;28;20697;-78
2023/06/09 04:22:07;;;;;;;17.60;11.57;;;;;;;-141.97;74.78;47574.81;5011514;28;20193;-78
2023/06/09 04:24:32;;;;;;;16.53;11.07;;;;;;;-141.97;74.28;47553.69;5011628;28;20159;-78
2023/06/09 04:26:58;;;;;;;17.90;11.07;;;;;;;-141.97;74.69;47553.69;5011596;28;20162;-78
2023/06/09 04:29:25;;;;;;;17.37;10.83;;;;;;;-141.97;73.25;47578.66;5011749;28;20163;-78
2023/06/09 04:31:58;;;;;;;16.37;10.43;;;;;;;-141.97;73.10;47586.34;5012222;28;20225;-77
2023/06/09 04:34:27;;;;;;;17.17;10.20;;;;;;;-141.97;72.67;47597.88;4994587;28;20241;-78
2023/06/09 04:36:55;;;;;;;16.77;10.77;;;;;;;-141.97;72.95;47507.53;5011618;28;20229;-78
2023/06/09 04:39:21;;;;;;;16.60;10.57;;;;;;;-141.97;72.49;47499.84;5021414;28;20167;-78
2023/06/09 04:41:47;;;;;;;19.13;10.23;;;;;;;-141.97;72.62;47607.50;5014313;28;20242;-79
2023/06/09 04:44:13;;;;;;;15.17;10.13;;;;;;;-141.97;71.40;47695.91;5012817;28;20187;-79
2023/06/09 04:46:40;;;;;;;15.27;10.27;;;;;;;-141.97;70.61;47563.28;5012410;28;20718;-78
2023/06/09 04:49:10;;;;;;;15.77;10.10;;;;;;;-141.97;69.00;47582.50;5011000;28;20217;-78
2023/06/09 04:51:48;;;;;;;16.67;10.00;;;;;;;-141.97;69.23;47553.69;5011166;28;20549;-78
2023/06/09 04:54:15;;;;;;;13.43;9.70;;;;;;;-141.97;68.18;47563.28;5010692;28;20202;-79
2023/06/09 04:56:43;;;;;;;16.93;9.30;;;;;;;-141.97;67.43;47521.00;5010712;28;20190;-78
2023/06/09 04:59:10;;;;;;;12.70;9.33;;;;;;;-141.97;66.41;47536.38;5011171;28;20194;-79
2023/06/09 05:01:37;;;;;;;14.00;9.57;;;;;;;-141.97;66.56;47563.28;5011109;28;20178;-78
2023/06/09 05:04:02;;;;;;;14.83;9.53;;;;;;;-141.97;67.90;47569.06;5014587;28;20299;-78
2023/06/09 05:06:27;;;;;;;13.00;9.03;;;;;;;-141.97;68.23;47570.97;5014074;28;20254;-77
2023/06/09 05:08:55;;;;;;;14.37;9.53;;;;;;;-141.97;67.55;47570.97;5014454;28;20175;-78
2023/06/09 05:11:21;;;;;;;15.20;10.03;;;;;;;-141.97;65.99;47530.59;5014381;28;20245;-78
2023/06/09 05:13:46;;;;;;;13.77;9.70;;;;;;;-141.97;64.69;47592.13;5014848;28;20162;-78
2023/06/09 05:16:15;;;;;;;15.00;10.23;;;;;;;-141.97;63.62;47553.69;5014410;28;20648;-77
2023/06/09 05:18:43;;;;;;;12.93;8.90;;;;;;;-141.97;63.46;47636.31;5014743;28;20167;-79
2023/06/09 05:21:10;;;;;;;15.57;9.30;;;;;;;-141.97;62.59;47522.91;5014132;28;20182;-79
2023/06/09 05:23:35;;;;;;;12.30;8.60;;;;;;;-141.97;61.67;47522.91;5014188;28;20597;-79
2023/06/09 05:26:02;;;;;;;13.73;9.43;;;;;;;-141.97;61.29;47430.66;5013696;28;20266;-80
2023/06/09 05:28:27;;;;;;;12.00;8.50;;;;;;;-141.97;60.97;47530.59;5014536;28;20174;-79
2023/06/09 05:30:53;;;;;;;12.23;8.60;;;;;;;-141.97;60.76;47538.28;5013061;28;20227;-78
2023/06/09 05:33:18;;;;;;;13.07;8.20;;;;;;;-141.97;61.22;47542.16;5006051;28;20226;-78
2023/06/09 05:35:45;;;;;;;12.87;8.23;;;;;;;-141.97;60.48;47549.84;5033481;28;20291;-77
2023/06/09 05:38:10;;;;;;;11.60;8.47;;;;;;;-141.97;59.78;47522.91;5033384;28;20158;-79
2023/06/09 05:40:36;;;;;;;11.43;8.03;;;;;;;-141.97;59.35;47496.00;5033881;28;20270;-78
2023/06/09 05:43:02;;;;;;;11.93;8.30;;;;;;;-141.97;59.40;47492.16;5034018;28;20177;-78
2023/06/09 05:45:27;;;;;;;15.00;8.67;;;;;;;-141.97;59.20;47559.44;5032979;28;20220;-78
2023/06/09 05:47:52;;;;;;;13.00;8.30;;;;;;;-141.97;59.04;47544.06;5033393;28;20166;-78
2023/06/09 05:50:18;;;;;;;9.20;7.07;;;;;;;-141.97;58.20;47522.91;5033474;28;20762;-78
2023/06/09 05:52:43;;;;;;;10.70;7.47;;;;;;;-141.97;58.61;47672.84;5034054;28;20166;-78
2023/06/09 05:55:09;;;;;;;11.67;7.77;;;;;;;-141.97;59.10;47538.28;5032084;28;20182;-78
2023/06/09 05:57:34;;;;;;;13.80;7.60;;;;;;;-141.97;59.51;47526.75;5033970;28;20163;-79
2023/06/09 06:00:07;;;;;;;11.60;7.10;;;;;;;-141.97;58.07;47549.84;5033844;28;20277;-78
2023/06/09 06:02:32;;;;;;;11.07;7.60;;;;;;;-141.97;57.18;47563.28;5033449;28;20158;-79
2023/06/09 06:04:57;;;;;;;11.70;7.20;;;;;;;-141.97;56.22;47513.31;5032756;28;20170;-77
2023/06/09 06:07:23;;;;;;;15.07;7.23;;;;;;;-141.97;55.12;47517.16;5033210;28;20197;-79
2023/06/09 06:09:48;;;;;;;10.13;7.03;;;;;;;-141.97;54.62;47426.81;5033139;28;20256;-82
2023/06/09 06:12:14;;;;;;;9.77;7.13;;;;;;;-141.97;55.41;47457.56;5033098;28;20166;-79
2023/06/09 06:14:39;;;;;;;9.63;6.97;;;;;;;-141.97;55.58;47515.22;5032582;28;20166;-78
2023/06/09 06:17:05;;;;;;;11.97;7.13;;;;;;;-141.97;55.35;47522.91;5032738;28;20267;-78
2023/06/09 06:19:30;;;;;;;13.70;7.27;;;;;;;-141.97;54.19;47519.06;5032882;28;20181;-78
2023/06/09 06:21:55;;;;;;;10.30;7.00;;;;;;;-141.97;53.82;47569.06;5032416;28;20169;-79
2023/06/09 06:24:21;;;;;;;10.77;6.43;;;;;;;-141.97;53.22;47517.16;5032449;28;20166;-79
2023/06/09 06:26:46;;;;;;;8.97;6.77;;;;;;;-141.97;52.88;47526.75;5032059;28;20204;-79
2023/06/09 06:29:11;;;;;;;10.50;6.80;;;;;;;-141.97;52.20;47534.44;5032332;28;20201;-78
2023/06/09 06:31:39;;;;;;;9.87;6.97;;;;;;;-141.97;51.49;47676.69;5032480;28;20611;-78
2023/06/09 06:34:04;;;;;;;10.67;7.13;;;;;;;-141.97;52.16;47705.53;5023105;28;20241;-79
2023/06/09 06:36:30;;;;;;;10.87;7.03;;;;;;;-141.97;51.82;47459.50;5032051;28;20190;-80
2023/06/09 06:38:55;;;;;;;9.67;7.13;;;;;;;-141.97;53.63;47555.59;5032349;28;20245;-78
2023/06/09 06:41:21;;;;;;;10.07;7.20;;;;;;;-141.97;52.78;47530.59;5032679;28;20244;-78
2023/06/09 06:43:49;;;;;;;11.17;7.73;;;;;;;-141.97;52.37;47517.16;5032248;28;20654;-78
2023/06/09 06:46:17;;;;;;;10.50;7.00;;;;;;;-141.97;51.26;47651.69;5030376;28;20257;-77
2023/06/09 06:48:42;;;;;;;14.00;7.30;;;;;;;-141.97;50.89;47492.16;5031969;28;20171;-81
2023/06/09 06:51:08;;;;;;;12.03;7.43;;;;;;;-141.97;49.93;47490.25;5032298;28;20166;-79
2023/06/09 06:53:36;;;;;;;13.10;7.03;;;;;;;-141.97;49.18;47511.38;5030516;28;20288;-79
2023/06/09 06:56:01;;;;;;;11.27;7.00;;;;;;;-141.97;49.10;47511.38;5031578;28;20202;-78
2023/06/09 06:58:28;;;;;;;10.43;6.87;;;;;;;-141.97;48.79;47559.44;5031895;28;20220;-79
2023/06/09 07:00:55;;;;;;;10.37;7.10;;;;;;;-141.97;48.70;47655.53;5032380;28;20168;-78
2023/06/09 07:03:20;;;;;;;8.53;6.77;;;;;;;-141.97;47.94;47615.19;5031844;28;20154;-80
2023/06/09 07:05:46;;;;;;;9.70;7.10;;;;;;;-141.97;49.19;47592.13;5031470;28;20615;-78
2023/06/09 07:08:11;;;;;;;13.37;7.60;;;;;;;-141.97;49.51;47490.25;5029132;28;20666;-81
2023/06/09 07:10:36;;;;;;;12.23;7.80;;;;;;;-141.97;48.35;47570.97;5031093;28;20568;-80
2023/06/09 07:13:02;;;;;;;10.37;7.10;;;;;;;-141.97;49.14;47686.31;5031590;28;20260;-79
2023/06/09 07:15:27;;;;;;;10.10;7.10;;;;;;;-141.97;48.42;47532.53;5031497;28;20194;-79
2023/06/09 07:17:53;;;;;;;12.83;7.13;;;;;;;-141.97;47.56;47499.84;5032276;28;20162;-78
2023/06/09 07:20:18;;;;;;;9.97;6.67;;;;;;;-141.97;47.51;47511.38;5031991;28;20174;-79
2023/06/09 07:22:46;;;;;;;10.13;6.93;;;;;;;-141.97;47.06;47494.09;5031711;28;20321;-78
2023/06/09 07:25:12;;;;;;;9.17;7.13;;;;;;;-141.97;47.02;47682.47;5031238;28;20170;-79
2023/06/09 07:27:37;;;;;;;14.00;6.63;;;;;;;-141.97;46.89;47446.03;5032387;28;20159;-79
2023/06/09 07:30:03;;;;;;;10.90;6.80;;;;;;;-141.97;45.65;47480.63;5031044;28;20188;-80
2023/06/09 07:32:30;;;;;;;11.20;7.20;;;;;;;-141.97;45.59;47665.16;5031339;28;20213;-79
2023/06/09 07:34:57;;;;;;;12.67;7.70;;;;;;;-141.97;45.02;47484.47;5021402;28;20232;-79
2023/06/09 07:37:25;;;;;;;11.23;7.30;;;;;;;-141.97;45.32;47496.00;5031186;28;20197;-79
2023/06/09 07:39:50;;;;;;;10.07;7.40;;;;;;;-141.97;45.47;47438.34;5032195;28;20563;-79
2023/06/09 07:42:15;;;;;;;10.13;7.80;;;;;;;-141.97;44.90;47396.06;5032176;28;20177;-79
2023/06/09 07:44:41;;;;;;;10.47;6.93;;;;;;;-141.97;44.17;47432.59;5031626;28;20218;-79
2023/06/09 07:47:07;;;;;;;9.03;7.00;;;;;;;-141.97;43.84;47451.81;5031676;28;20229;-79
2023/06/09 07:49:32;;;;;;;10.30;7.10;;;;;;;-141.97;43.19;47449.88;5031908;28;20169;-79
2023/06/09 07:51:59;;;;;;;13.60;7.13;;;;;;;-141.97;43.71;47461.41;5032137;28;20680;-78
2023/06/09 07:54:24;;;;;;;10.47;6.80;;;;;;;-141.97;44.06;47419.13;5029738;28;20182;-78
2023/06/09 07:56:50;;;;;;;10.30;7.50;;;;;;;-141.97;43.96;47478.72;5031520;28;20584;-78
2023/06/09 07:59:17;;;;;;;11.23;6.53;;;;;;;-141.97;44.33;47472.94;5031061;28;20169;-79
2023/06/09 08:01:44;;;;;;;9.60;7.00;;;;;;;-141.97;43.93;47369.16;5032867;28;20174;-79
2023/06/09 08:04:10;;;;;;;11.43;6.70;;;;;;;-141.97;43.76;47501.78;5032373;28;20178;-80
2023/06/09 08:06:35;;;;;;;9.73;6.90;;;;;;;-141.97;43.18;47340.34;5031208;28;20181;-81
2023/06/09 08:09:00;;;;;;;9.47;7.07;;;;;;;-141.97;42.40;47449.88;5016802;28;20178;-79
2023/06/09 08:11:26;;;;;;;11.70;6.90;;;;;;;-141.97;42.46;47442.19;5029114;28;20546;-78
2023/06/09 08:13:52;;;;;;;7.67;6.27;;;;;;;-141.97;41.57;47365.31;5030708;28;20197;-81
2023/06/09 08:16:17;;;;;;;8.57;7.07;;;;;;;-141.97;41.17;47446.03;5027904;28;20294;-77
2023/06/09 08:18:43;;;;;;;8.75;6.00;;;;;;;-141.97;41.25;47499.84;5031042;28;20174;-81
2023/06/09 08:21:08;;;;;;;7.50;6.45;;;;;;;-141.97;40.98;47440.28;5028781;28;20242;-79
2023/06/09 08:23:34;;;;;;;8.02;6.43;;;;;;;-141.97;40.38;47442.19;5031144;28;20198;-78
2023/06/09 08:26:00;;;;;;;11.20;6.45;;;;;;;-141.97;40.52;47369.16;5029716;28;20225;-79
2023/06/09 08:28:25;;;;;;;9.63;6.07;;;;;;;-141.97;40.08;47459.50;5030530;28;20186;-80
2023/06/09 08:30:51;;;;;;;8.07;6.05;;;;;;;-141.97;39.80;47407.59;5030343;28;20182;-79
2023/06/09 08:33:16;;;;;;;6.75;5.53;;;;;;;-141.97;39.33;47444.13;5020975;28;20622;-80
2023/06/09 08:35:42;;;;;;;9.50;6.43;;;;;;;-141.97;39.57;47442.19;5028810;28;20214;-79
2023/06/09 08:38:07;;;;;;;10.02;6.50;;;;;;;-141.97;39.36;47603.66;5033934;28;20179;-79
2023/06/09 08:40:34;;;;;;;9.73;6.43;;;;;;;-141.97;39.35;47449.88;5034128;28;20605;-78
2023/06/09 08:43:02;;;;;;;10.75;6.25;;;;;;;-141.97;39.45;47407.59;5033987;28;20524;-77
2023/06/09 08:45:33;;;;;;;9.60;6.32;;;;;;;-141.97;39.62;47422.97;5027683;28;20204;-78
2023/06/09 08:48:00;;;;;;;9.95;5.93;;;;;;;-141.97;38.65;47424.91;5019692;28;20188;-79
2023/06/09 08:50:29;;;;;;;8.80;5.80;;;;;;;-141.97;39.50;47469.09;5014517;28;20168;-78
2023/06/09 08:52:55;;;;;;;8.75;6.57;;;;;;;-141.97;40.90;47469.09;5034469;28;20173;-79
2023/06/09 08:55:21;;;;;;;9.17;6.43;;;;;;;-141.97;40.59;47453.72;5034404;28;20178;-78
2023/06/09 08:57:48;;;;;;;8.20;6.00;;;;;;;-141.97;40.03;47472.94;5034412;28;20554;-78
2023/06/09 09:00:15;;;;;;;9.55;5.82;;;;;;;-141.97;38.61;47353.78;5034475;28;20654;-79
2023/06/09 09:02:43;;;;;;;9.77;6.57;;;;;;;-141.97;37.77;47426.81;5033778;28;20303;-78
2023/06/09 09:05:09;;;;;;;9.88;6.20;;;;;;;-141.97;37.95;47497.94;5034505;28;20192;-78
2023/06/09 09:07:35;;;;;;;7.82;5.78;;;;;;;-141.97;37.40;47442.19;5031850;28;20177;-80
2023/06/09 09:10:01;;;;;;;9.80;6.88;;;;;;;-141.97;37.53;47430.66;5034330;28;20190;-78
2023/06/09 09:12:26;;;;;;;11.95;6.60;;;;;;;-141.97;36.96;47430.66;5033631;28;20224;-79
2023/06/09 09:14:52;;;;;;;10.07;6.20;;;;;;;-141.97;37.16;47457.56;5034047;28;20170;-79
2023/06/09 09:17:18;;;;;;;11.55;6.18;;;;;;;-141.97;37.62;47447.97;5032912;28;20228;-78
2023/06/09 09:19:48;;;;;;;12.18;6.32;;;;;;;-141.97;36.87;47419.13;5034347;28;20169;-79
2023/06/09 09:22:14;;;;;;;8.32;6.15;;;;;;;-141.97;36.57;47432.59;5033604;28;20165;-78
2023/06/09 09:24:48;;;;;;;9.38;5.97;;;;;;;-141.97;36.57;47446.03;5034289;28;20192;-77
2023/06/09 09:27:18;;;;;;;7.95;6.05;;;;;;;-141.97;36.80;47392.22;5034199;28;20612;-79
2023/06/09 09:29:45;;;;;;;8.93;6.68;;;;;;;-141.97;37.26;47355.72;5033411;28;20181;-79
2023/06/09 09:32:10;;;;;;;10.73;6.30;;;;;;;-141.97;37.05;47355.72;5033490;28;20592;-79
2023/06/09 09:34:44;;;;;;;8.52;6.47;;;;;;;-141.97;37.45;47415.28;5024251;28;20231;-79
2023/06/09 09:37:11;;;;;;;8.05;6.72;;;;;;;-141.97;36.90;47388.38;5033666;28;20206;-78
2023/06/09 09:39:50;;;;;;;8.23;6.25;;;;;;;-141.97;36.85;47396.06;5033170;28;20276;-78
2023/06/09 09:42:16;;;;;;;12.10;6.40;;;;;;;-141.97;37.06;47386.47;5034055;28;20219;-80
2023/06/09 09:44:46;;;;;;;8.43;6.55;;;;;;;-141.97;37.20;47426.81;5034418;28;20209;-79
2023/06/09 09:47:13;;;;;;;10.07;6.70;;;;;;;-141.97;36.60;47403.75;5033411;28;20299;-79
2023/06/09 09:49:55;;;;;;;9.90;6.20;;;;;;;-141.97;36.78;47421.06;5032969;28;20209;-78
2023/06/09 09:52:23;;;;;;;12.05;7.32;;;;;;;-141.97;36.71;47396.06;5033265;28;20184;-80
2023/06/09 09:54:51;;;;;;;12.00;7.28;;;;;;;-141.97;35.92;47359.56;5033413;28;20187;-79
2023/06/09 09:57:18;;;;;;;10.52;7.10;;;;;;;-141.97;36.05;47409.53;5033762;28;20204;-79
2023/06/09 09:59:44;;;;;;;11.82;7.13;;;;;;;-141.97;36.38;47388.38;5032516;28;20162;-78
2023/06/09 10:02:17;;;;;;;12.00;8.02;;;;;;;-141.97;36.70;47390.31;5032770;28;20618;-81
2023/06/09 10:04:43;;;;;;;14.30;9.10;;;;;;;-141.97;36.68;47434.50;5032959;28;20170;-79
2023/06/09 10:07:10;;;;;;;18.90;9.13;;;;;;;-141.97;36.98;47415.28;5032925;28;20166;-79
2023/06/09 10:09:36;;;;;;;14.73;9.05;;;;;;;-141.97;36.67;47394.16;5031495;28;20185;-79
2023/06/09 10:12:03;;;;;;;15.27;9.57;;;;;;;-141.97;36.48;47365.31;5032811;28;20591;-79
2023/06/09 10:14:29;;;;;;;15.27;9.88;;;;;;;-141.97;37.13;47376.84;5033481;28;20541;-79
2023/06/09 10:16:57;;;;;;;13.18;8.98;;;;;;;-141.97;36.59;47447.97;5032764;28;20610;-79
2023/06/09 10:19:23;;;;;;;16.33;8.80;;;;;;;-141.97;36.74;47401.84;5032621;28;20178;-78
2023/06/09 10:21:49;;;;;;;14.43;8.27;;;;;;;-141.97;36.18;47413.38;5032097;28;20269;-79
2023/06/09 10:24:16;;;;;;;12.73;8.20;;;;;;;-141.97;36.01;47390.31;5033016;28;20172;-78
2023/06/09 10:26:43;;;;;;;9.57;7.28;;;;;;;-141.97;36.47;47353.78;5032667;28;20162;-79
2023/06/09 10:29:09;;;;;;;10.25;7.25;;;;;;;-141.97;36.41;47411.44;5032745;28;20165;-79
2023/06/09 10:31:41;;;;;;;11.85;7.35;;;;;;;-141.97;37.05;47380.69;5031633;28;20185;-79
2023/06/09 10:34:09;;;;;;;10.38;6.85;;;;;;;-141.97;37.38;47376.84;5023403;28;20671;-79
2023/06/09 10:36:37;;;;;;;10.02;7.13;;;;;;;-141.97;36.98;47390.31;5032132;28;20314;-79
2023/06/09 10:39:16;;;;;;;11.18;7.30;;;;;;;-141.97;37.13;47446.03;5032201;28;20167;-79
2023/06/09 10:41:51;;;;;;;9.95;6.72;;;;;;;-141.97;36.68;47276.91;5031598;28;20174;-78
2023/06/09 10:44:22;;;;;;;8.70;6.75;;;;;;;-141.97;36.76;47707.44;5032374;28;20161;-78
2023/06/09 10:46:50;;;;;;;12.52;7.05;;;;;;;-141.97;37.86;47384.53;5032100;28;20293;-77
2023/06/09 10:49:25;;;;;;;10.10;6.88;;;;;;;-141.97;37.70;47380.69;5032186;28;20159;-77
2023/06/09 10:51:50;;;;;;;9.65;6.78;;;;;;;-141.97;38.25;47447.97;5030465;28;20185;-78
2023/06/09 10:54:20;;;;;;;8.73;6.10;;;;;;;-141.97;37.60;47432.59;5029406;28;20185;-77
2023/06/09 10:56:52;;;;;;;7.55;6.40;;;;;;;-141.97;38.28;47732.44;5031585;28;20287;-78
2023/06/09 10:59:23;;;;;;;8.55;6.53;;;;;;;-141.97;38.72;47419.13;5031091;28;20170;-78
2023/06/09 11:02:04;;;;;;;9.25;6.18;;;;;;;-141.97;39.24;47421.06;5031387;28;20194;-79
2023/06/09 11:04:39;;;;;;;11.73;6.70;;;;;;;-141.97;38.63;47438.34;5032455;28;20181;-76
2023/06/09 11:07:12;;;;;;;7.03;5.95;;;;;;;-141.97;38.74;47432.59;5031958;28;20256;-78
2023/06/09 11:09:39;;;;;;;8.68;6.13;;;;;;;-141.97;38.03;47446.03;5032147;28;20630;-78
2023/06/09 11:12:05;;;;;;;8.25;6.03;;;;;;;-141.97;37.70;47363.41;5031606;28;20256;-78
2023/06/09 11:14:51;;;;;;;10.07;6.40;;;;;;;-141.97;37.63;47449.88;5031502;28;20286;-78
2023/06/09 11:17:29;;;;;;;8.13;5.97;;;;;;;-141.97;37.40;47396.06;5030719;28;20255;-78
2023/06/09 11:20:09;;;;;;;6.95;6.07;;;;;;;-141.97;36.95;47396.06;5031950;28;20172;-79
2023/06/09 11:22:34;;;;;;;6.68;5.78;;;;;;;-141.97;37.20;47398.00;5030945;28;20185;-78
2023/06/09 11:25:00;;;;;;;7.70;5.68;;;;;;;-141.97;36.85;47407.59;5032117;28;20172;-78
2023/06/09 11:27:26;;;;;;;9.63;6.25;;;;;;;-141.97;36.62;47444.13;5031760;28;20672;-77
2023/06/09 11:30:20;;;;;;;6.97;5.47;;;;;;;-141.97;36.46;47396.06;5031205;28;20168;-79
2023/06/09 11:32:49;;;;;;;6.38;5.60;;;;;;;-141.97;36.24;47446.03;5030844;28;20651;-78
2023/06/09 11:35:27;;;;;;;7.32;5.65;;;;;;;-141.97;36.08;47396.06;5022098;28;20349;-78
2023/06/09 11:38:05;;;;;;;7.20;5.45;;;;;;;-141.97;35.49;47374.94;5031131;28;20173;-78
2023/06/09 11:40:32;;;;;;;7.20;5.38;;;;;;;-141.97;33.86;47355.72;5031626;28;20176;-78